Time;durP1;ratioP1;P1;durP2;ratioP2;P2;SDS_P1;SDS_P2;PMS_P1;PMS_P2;Temp;Humidity;BMP_temperature;BMP_pressure;BME280_temperature;BME280_humidity;BME280_pressure;Samples;Min_cycle;Max_cycle;Signal;HPM_P1;HPM_P2
2022/01/28 00:01:54;;;;;;;17.05;13.03;;;;;;;11.19;64.92;98896.89;1800283;78;21274;-64
2022/01/28 00:04:16;;;;;;;14.83;12.00;;;;;;;11.19;64.94;98901.69;1794518;79;21078;-62
2022/01/28 00:06:42;;;;;;;14.18;12.25;;;;;;;11.20;64.99;98895.86;1793938;79;21587;-64
2022/01/28 00:09:08;;;;;;;14.75;11.50;;;;;;;11.20;64.89;98902.02;1821109;78;21114;-63
2022/01/28 00:11:35;;;;;;;15.00;11.63;;;;;;;11.21;64.68;98887.70;1824802;78;20969;-62
2022/01/28 00:14:20;;;;;;;15.15;11.68;;;;;;;11.22;64.60;98891.17;1826239;78;21129;-62
2022/01/28 00:38:29;;;;;;;13.75;10.82;;;;;;;11.26;64.35;98865.02;1793989;80;21580;-63
2022/01/28 00:40:51;;;;;;;14.18;11.33;;;;;;;11.26;64.36;98855.72;1793280;79;23293;-64
2022/01/28 00:43:17;;;;;;;14.28;12.07;;;;;;;11.25;64.34;98842.94;1808873;77;20990;-64
2022/01/28 00:45:43;;;;;;;13.88;10.93;;;;;;;11.26;64.33;98853.06;1798626;77;20986;-64
2022/01/28 00:48:10;;;;;;;13.38;10.95;;;;;;;11.26;64.31;98855.23;1793830;80;21021;-62
2022/01/28 00:50:36;;;;;;;11.97;10.23;;;;;;;11.27;64.31;98853.38;1860022;77;21004;-63
2022/01/28 00:53:03;;;;;;;13.00;10.93;;;;;;;11.28;64.29;98845.70;1863421;77;21079;-62
2022/01/28 00:55:29;;;;;;;12.40;10.18;;;;;;;11.28;64.24;98834.59;1823269;77;21006;-62
2022/01/28 00:57:55;;;;;;;13.70;10.90;;;;;;;11.29;64.22;98826.09;1804645;78;21000;-63
2022/01/28 01:00:22;;;;;;;13.80;10.75;;;;;;;11.29;64.08;98820.26;1794110;79;21018;-62
2022/01/28 01:02:49;;;;;;;12.18;10.78;;;;;;;11.29;64.07;98824.25;1812933;78;21500;-63
2022/01/28 01:05:15;;;;;;;11.70;10.38;;;;;;;11.30;64.04;98820.59;1814929;78;21095;-62
2022/01/28 01:07:41;;;;;;;14.00;11.03;;;;;;;11.31;64.08;98806.26;1793638;80;21021;-62
2022/01/28 01:10:09;;;;;;;13.32;11.28;;;;;;;11.32;63.98;98799.09;1795215;78;21553;-62
2022/01/28 01:12:42;;;;;;;16.85;10.85;;;;;;;11.33;63.92;98795.44;1816001;78;21014;-62
2022/01/28 01:15:06;;;;;;;10.95;9.80;;;;;;;11.34;63.92;98787.78;1824956;78;20986;-63
2022/01/28 01:17:43;;;;;;;12.45;10.55;;;;;;;11.35;63.86;98790.73;1826042;78;20993;-63
2022/01/28 01:25:56;;;;;;;11.73;10.30;;;;;;;11.37;63.68;98771.42;1793633;80;20970;-62
2022/01/28 01:28:19;;;;;;;11.18;10.03;;;;;;;11.36;63.60;98776.44;1802547;78;21554;-62
2022/01/28 01:30:45;;;;;;;10.63;9.53;;;;;;;11.37;63.55;98780.72;1807524;78;21134;-65
2022/01/28 01:33:12;;;;;;;11.83;10.38;;;;;;;11.37;63.44;98748.81;1793665;78;21572;-61
2022/01/28 01:35:40;;;;;;;11.20;9.95;;;;;;;11.38;63.43;98759.78;1801676;77;21564;-61
2022/01/28 01:38:08;;;;;;;11.48;10.28;;;;;;;11.40;63.31;98748.44;1811986;77;21008;-61
2022/01/28 01:40:47;;;;;;;11.97;10.10;;;;;;;11.40;63.23;98749.77;1793504;79;21021;-63
2022/01/28 01:43:17;;;;;;;11.00;9.83;;;;;;;11.40;63.26;98757.73;1794061;78;21102;-63
2022/01/28 01:45:54;;;;;;;11.20;9.63;;;;;;;11.40;63.17;98750.58;1798065;78;21347;-63
2022/01/28 01:53:37;;;;;;;10.90;9.65;;;;;;;11.40;63.14;98751.91;1812660;78;21061;-62
2022/01/28 01:56:04;;;;;;;10.98;9.75;;;;;;;11.40;63.13;98738.61;1803350;78;21815;-62
2022/01/28 01:58:32;;;;;;;10.82;9.73;;;;;;;11.41;63.06;98737.61;1812338;78;21002;-63
2022/01/28 02:01:00;;;;;;;10.38;9.18;;;;;;;11.41;63.14;98735.44;1812789;77;21022;-64
2022/01/28 02:03:28;;;;;;;10.60;9.15;;;;;;;11.41;63.02;98736.77;1800624;79;20963;-62
2022/01/28 02:05:58;;;;;;;10.70;9.60;;;;;;;11.41;63.01;98738.09;1811271;79;21016;-63
2022/01/28 02:08:28;;;;;;;12.25;10.30;;;;;;;11.42;62.91;98723.79;1814407;78;22330;-62
2022/01/28 02:10:57;;;;;;;11.35;9.95;;;;;;;11.43;62.86;98724.60;1811994;77;21119;-63
2022/01/28 02:13:27;;;;;;;11.65;9.35;;;;;;;11.42;62.86;98721.13;1785091;78;20986;-62
2022/01/28 02:15:55;;;;;;;11.97;9.83;;;;;;;11.42;62.78;98725.12;1783812;79;21490;-61
2022/01/28 02:18:22;;;;;;;10.35;9.30;;;;;;;11.42;62.72;98718.47;1783387;79;21037;-63
2022/01/28 02:20:53;;;;;;;10.40;9.08;;;;;;;11.43;62.77;98717.44;1807999;79;21169;-61
2022/01/28 02:23:20;;;;;;;10.72;9.63;;;;;;;11.42;62.76;98718.47;1808390;79;21072;-62
2022/01/28 02:25:47;;;;;;;11.35;9.75;;;;;;;11.44;62.71;98713.77;1799943;77;21014;-63
2022/01/28 02:28:16;;;;;;;11.73;9.98;;;;;;;11.45;62.65;98723.89;1794366;77;21506;-63
2022/01/28 02:30:41;;;;;;;11.48;10.18;;;;;;;11.45;62.48;98710.08;1798236;78;21533;-61
2022/01/28 02:33:18;;;;;;;11.75;9.25;;;;;;;11.47;62.45;98712.55;1782563;80;21084;-62
2022/01/28 02:35:43;;;;;;;12.10;10.48;;;;;;;11.46;62.39;98697.63;1788311;78;21053;-62
2022/01/28 02:38:12;;;;;;;10.58;9.50;;;;;;;11.47;62.28;98717.34;1813874;79;21026;-61
2022/01/28 02:40:42;;;;;;;10.68;9.65;;;;;;;11.47;62.28;98706.70;1816610;78;21581;-62
2022/01/28 02:45:52;;;;;;;11.57;10.38;;;;;;;11.47;62.36;98705.37;1793792;79;21203;-62
2022/01/28 02:48:26;;;;;;;12.05;10.25;;;;;;;11.45;62.45;98696.78;1814761;79;21506;-64
2022/01/28 02:53:23;;;;;;;11.55;10.35;;;;;;;11.45;62.36;98692.79;1814445;79;21046;-61
2022/01/28 02:55:44;;;;;;;11.68;10.03;;;;;;;11.45;62.37;98683.48;1799962;78;21556;-61
2022/01/28 02:58:23;;;;;;;10.68;9.58;;;;;;;11.46;62.38;98693.63;1793470;79;21144;-62
2022/01/28 03:00:48;;;;;;;10.60;9.33;;;;;;;11.45;62.42;98698.11;1794552;78;21002;-62
2022/01/28 03:03:18;;;;;;;11.18;9.50;;;;;;;11.45;62.44;98671.52;1814984;78;21505;-62
2022/01/28 03:05:45;;;;;;;10.50;9.50;;;;;;;11.45;62.39;98694.64;1824218;78;21076;-63
2022/01/28 03:08:12;;;;;;;10.35;9.03;;;;;;;11.45;62.35;98687.47;1838617;77;21498;-63
2022/01/28 03:10:48;;;;;;;11.25;9.98;;;;;;;11.46;62.27;98675.83;1825998;78;21201;-62
2022/01/28 03:15:41;;;;;;;11.12;9.43;;;;;;;11.46;62.24;98685.66;1796504;78;21014;-63
2022/01/28 03:18:12;;;;;;;11.03;9.58;;;;;;;11.46;62.25;98672.36;1794576;78;21033;-62
2022/01/28 03:23:02;;;;;;;10.75;9.65;;;;;;;11.47;62.19;98679.30;1825886;78;21182;-64
2022/01/28 03:25:30;;;;;;;10.55;9.30;;;;;;;11.46;62.13;98694.45;1800173;78;21560;-62
2022/01/28 03:27:59;;;;;;;10.15;9.13;;;;;;;11.46;62.12;98676.34;1793931;80;21058;-63
2022/01/28 03:30:26;;;;;;;9.80;8.55;;;;;;;11.46;62.07;98681.15;1808779;77;21049;-63
2022/01/28 03:32:52;;;;;;;10.65;9.55;;;;;;;11.47;62.08;98688.09;1812639;78;21037;-62
2022/01/28 03:35:19;;;;;;;11.35;9.10;;;;;;;11.47;62.07;98677.45;1814735;78;21094;-62
2022/01/28 03:37:46;;;;;;;9.70;8.60;;;;;;;11.48;62.03;98679.62;1796938;78;21037;-62
2022/01/28 03:40:17;;;;;;;9.83;8.60;;;;;;;11.48;61.97;98665.00;1794306;78;21026;-62
2022/01/28 03:42:41;;;;;;;11.00;8.90;;;;;;;11.48;61.93;98671.65;1793910;79;21069;-63
2022/01/28 03:45:09;;;;;;;9.98;8.65;;;;;;;11.48;61.84;98665.81;1810226;77;21028;-62
2022/01/28 03:47:35;;;;;;;10.32;8.25;;;;;;;11.48;61.83;98653.03;1839684;77;21067;-62
2022/01/28 03:50:01;;;;;;;9.15;8.25;;;;;;;11.48;61.82;98653.03;1845959;77;20997;-63
2022/01/28 03:52:28;;;;;;;9.55;8.60;;;;;;;11.48;61.84;98667.14;1820830;77;21455;-63
2022/01/28 03:54:55;;;;;;;10.05;8.93;;;;;;;11.48;61.85;98646.38;1812995;78;21177;-62
2022/01/28 03:57:21;;;;;;;9.90;8.90;;;;;;;11.47;61.84;98658.84;1799773;78;21541;-62
2022/01/28 03:59:48;;;;;;;9.90;8.90;;;;;;;11.49;61.89;98662.63;1825978;78;21134;-62
2022/01/28 04:02:19;;;;;;;9.03;8.15;;;;;;;11.48;61.88;98657.83;1823804;77;21077;-62
2022/01/28 04:12:55;;;;;;;8.38;7.47;;;;;;;11.47;61.74;98640.22;1828298;77;21132;-62
2022/01/28 04:18:05;;;;;;;8.95;8.05;;;;;;;11.48;61.83;98629.09;1743021;82;21064;-63
2022/01/28 04:20:32;;;;;;;9.43;8.43;;;;;;;11.47;61.74;98636.23;1787179;78;20986;-63
2022/01/28 04:22:58;;;;;;;9.50;8.53;;;;;;;11.48;61.73;98635.74;1793576;80;21057;-62
2022/01/28 04:25:25;;;;;;;9.18;8.28;;;;;;;11.48;61.70;98658.34;1794480;78;21124;-62
2022/01/28 04:27:51;;;;;;;10.00;8.25;;;;;;;11.48;61.70;98665.00;1794865;78;21017;-62
2022/01/28 04:30:17;;;;;;;9.58;8.08;;;;;;;11.48;61.71;98656.50;1802167;77;21080;-62
2022/01/28 04:32:46;;;;;;;9.45;8.40;;;;;;;11.48;61.67;98654.36;1825764;78;21053;-61
2022/01/28 04:35:12;;;;;;;9.40;7.87;;;;;;;11.48;61.71;98659.68;1825782;78;21493;-61
2022/01/28 04:38:13;;;;;;;9.10;8.20;;;;;;;11.48;61.68;98648.52;1825845;78;21135;-62
2022/01/28 04:40:32;;;;;;;9.15;7.97;;;;;;;11.49;61.66;98663.96;1818061;78;21549;-63
2022/01/28 04:45:39;;;;;;;9.68;8.68;;;;;;;11.48;61.70;98661.82;1796843;78;21084;-62
2022/01/28 04:55:39;;;;;;;10.08;9.08;;;;;;;11.47;61.62;98698.73;1803517;78;21021;-62
2022/01/28 04:58:07;;;;;;;8.40;7.53;;;;;;;11.46;61.67;98695.78;1785151;79;21061;-63
2022/01/28 05:00:34;;;;;;;8.90;8.08;;;;;;;11.44;61.65;98691.17;1792669;77;21034;-64
2022/01/28 05:03:09;;;;;;;9.03;8.13;;;;;;;11.41;61.60;98688.41;1810534;79;22056;-61
2022/01/28 05:13:47;;;;;;;9.03;8.13;;;;;;;11.23;61.23;98674.02;1784548;79;21076;-61
2022/01/28 05:26:39;;;;;;;9.78;7.80;;;;;;;10.89;60.99;98674.34;1782373;80;21006;-63
2022/01/28 05:29:04;;;;;;;9.33;8.43;;;;;;;10.82;60.99;98671.16;1784474;78;21138;-62
2022/01/28 05:31:31;;;;;;;9.03;8.05;;;;;;;10.78;60.96;98671.23;1810036;77;21037;-62
2022/01/28 05:33:57;;;;;;;9.23;8.33;;;;;;;10.74;60.92;98673.97;1806043;78;21021;-60
2022/01/28 05:36:24;;;;;;;9.18;8.25;;;;;;;10.70;60.90;98669.23;1803658;79;21034;-61
2022/01/28 05:38:50;;;;;;;9.48;7.87;;;;;;;10.66;60.83;98667.98;1804714;79;21049;-62
2022/01/28 05:41:17;;;;;;;9.65;8.58;;;;;;;10.62;60.78;98674.19;1783317;79;21050;-62
2022/01/28 05:43:43;;;;;;;9.68;8.55;;;;;;;10.58;60.73;98659.66;1782403;79;20970;-61
2022/01/28 05:46:09;;;;;;;8.93;8.03;;;;;;;10.53;60.70;98661.58;1782404;80;21061;-62
2022/01/28 05:48:36;;;;;;;9.20;8.30;;;;;;;10.50;60.64;98658.48;1782314;80;21064;-62
2022/01/28 05:51:03;;;;;;;8.55;7.75;;;;;;;10.46;60.63;98667.34;1791698;79;21479;-63
2022/01/28 05:53:29;;;;;;;8.20;7.33;;;;;;;10.43;60.56;98669.89;1810004;78;21128;-61
2022/01/28 05:55:55;;;;;;;9.28;8.03;;;;;;;10.39;60.55;98675.27;1819490;78;22021;-61
2022/01/28 05:58:23;;;;;;;8.60;7.70;;;;;;;10.37;60.51;98678.62;1821706;77;21000;-63
2022/01/28 06:00:50;;;;;;;9.18;8.23;;;;;;;10.34;60.48;98680.33;1800706;77;21025;-62
2022/01/28 06:03:16;;;;;;;9.10;8.20;;;;;;;10.33;60.43;98683.17;1817996;77;21100;-63
2022/01/28 06:05:44;;;;;;;8.80;7.75;;;;;;;10.29;60.43;98685.87;1815865;77;21780;-62
2022/01/28 06:08:11;;;;;;;8.95;7.83;;;;;;;10.26;60.41;98687.08;1807448;78;21153;-62
2022/01/28 06:10:37;;;;;;;8.60;7.80;;;;;;;10.24;60.39;98693.09;1809989;78;21083;-63
2022/01/28 06:13:05;;;;;;;9.15;8.18;;;;;;;10.21;60.36;98685.50;1799565;78;21537;-62
2022/01/28 06:15:32;;;;;;;9.10;8.20;;;;;;;10.20;60.34;98689.18;1794029;78;21699;-62
2022/01/28 06:17:59;;;;;;;9.60;8.60;;;;;;;10.17;60.32;98676.28;1794459;78;21124;-62
2022/01/28 06:20:26;;;;;;;8.60;7.80;;;;;;;10.16;60.28;98674.14;1822085;78;21465;-62
2022/01/28 06:22:54;;;;;;;9.13;8.23;;;;;;;10.14;60.23;98678.82;1817969;78;21069;-63
2022/01/28 06:25:20;;;;;;;8.55;7.75;;;;;;;10.13;60.21;98682.47;1796208;77;21505;-62
2022/01/28 06:27:46;;;;;;;8.28;7.40;;;;;;;10.12;60.16;98676.86;1799016;78;21066;-63
2022/01/28 06:30:13;;;;;;;9.48;8.53;;;;;;;10.11;60.11;98681.03;1794026;78;21038;-63
2022/01/28 06:32:40;;;;;;;8.68;7.87;;;;;;;10.10;60.10;98678.89;1815587;78;21018;-63
2022/01/28 06:35:10;;;;;;;8.25;7.55;;;;;;;10.09;60.08;98675.09;1794602;78;21033;-63
2022/01/28 06:37:42;;;;;;;8.33;7.53;;;;;;;10.08;60.04;98680.08;1811376;78;21002;-62
2022/01/28 06:40:11;;;;;;;9.08;8.18;;;;;;;10.06;59.99;98676.28;1792781;78;21104;-63
2022/01/28 06:42:37;;;;;;;8.85;7.97;;;;;;;10.06;59.99;98682.09;1808505;77;21491;-62
2022/01/28 06:45:06;;;;;;;8.43;7.60;;;;;;;10.04;59.95;98671.67;1812291;78;21033;-63
2022/01/28 06:47:35;;;;;;;8.88;7.97;;;;;;;10.02;59.93;98680.33;1825622;78;21021;-63
2022/01/28 06:50:06;;;;;;;9.28;8.25;;;;;;;10.01;59.90;98676.05;1822194;78;20990;-63
2022/01/28 06:52:34;;;;;;;9.18;8.25;;;;;;;10.00;59.89;98682.35;1819284;77;20994;-63
2022/01/28 06:55:01;;;;;;;8.80;7.90;;;;;;;9.99;59.89;98684.70;1811452;77;21088;-63
2022/01/28 06:57:29;;;;;;;10.43;9.03;;;;;;;9.97;59.84;98683.56;1802467;78;21101;-63
2022/01/28 06:59:56;;;;;;;9.08;7.90;;;;;;;9.97;59.82;98686.22;1796868;77;21036;-63
2022/01/28 07:02:22;;;;;;;9.80;8.80;;;;;;;9.96;59.81;98685.88;1810619;77;20990;-62
2022/01/28 07:04:49;;;;;;;8.60;7.70;;;;;;;9.96;59.78;98675.78;1813119;79;21076;-62
2022/01/28 07:07:15;;;;;;;9.70;8.70;;;;;;;9.95;59.76;98698.04;1793329;79;21126;-62
2022/01/28 07:09:42;;;;;;;10.38;8.90;;;;;;;9.94;59.73;98677.81;1814394;79;21010;-64
2022/01/28 07:12:10;;;;;;;9.58;8.58;;;;;;;9.93;59.70;98679.66;1802433;79;21011;-62
2022/01/28 07:14:36;;;;;;;10.08;9.05;;;;;;;9.93;59.69;98670.84;1800053;77;21030;-63
2022/01/28 07:17:04;;;;;;;10.48;9.38;;;;;;;9.93;59.65;98676.16;1800799;78;21018;-64
2022/01/28 07:19:30;;;;;;;9.25;8.25;;;;;;;9.91;59.65;98680.34;1806639;77;21134;-63
2022/01/28 07:21:58;;;;;;;9.73;8.68;;;;;;;9.90;59.63;98678.69;1806100;79;21037;-62
2022/01/28 07:24:24;;;;;;;9.00;8.10;;;;;;;9.90;59.62;98679.20;1806236;79;21545;-64
2022/01/28 07:26:51;;;;;;;9.78;8.78;;;;;;;9.89;59.61;98673.09;1807958;79;21008;-64
2022/01/28 07:29:19;;;;;;;8.75;7.85;;;;;;;9.89;59.59;98673.56;1810152;78;21014;-63
2022/01/28 07:31:46;;;;;;;9.68;8.70;;;;;;;9.87;59.58;98669.80;1799603;77;21134;-63
2022/01/28 07:34:12;;;;;;;8.88;7.97;;;;;;;9.89;59.61;98670.91;1795379;77;21026;-65
2022/01/28 07:36:39;;;;;;;11.12;8.23;;;;;;;9.88;59.58;98668.78;1785406;79;21025;-65
2022/01/28 07:39:07;;;;;;;11.60;9.55;;;;;;;9.88;59.59;98663.98;1807315;79;21080;-63
2022/01/28 07:41:34;;;;;;;10.15;9.15;;;;;;;9.88;59.56;98670.11;1804791;79;21040;-62
2022/01/28 07:44:00;;;;;;;9.43;8.43;;;;;;;9.88;59.67;98670.62;1790390;77;21486;-63
2022/01/28 07:46:27;;;;;;;10.43;9.10;;;;;;;9.87;59.82;98669.80;1791416;79;20982;-63
2022/01/28 07:48:53;;;;;;;10.15;9.08;;;;;;;9.88;59.88;98665.31;1807671;77;21022;-62
2022/01/28 07:51:20;;;;;;;10.70;9.50;;;;;;;9.88;59.89;98666.13;1797050;77;21088;-62
2022/01/28 07:53:46;;;;;;;9.83;8.65;;;;;;;9.88;59.89;98663.47;1817458;77;21021;-62
2022/01/28 07:56:14;;;;;;;11.22;10.00;;;;;;;9.87;59.86;98669.80;1790383;79;21049;-63
2022/01/28 07:58:41;;;;;;;10.53;9.23;;;;;;;9.87;59.86;98676.44;1783020;78;21085;-63
2022/01/28 08:01:07;;;;;;;10.38;8.90;;;;;;;9.87;59.83;98663.17;1792892;78;21061;-61
2022/01/28 08:03:34;;;;;;;9.60;8.60;;;;;;;9.87;59.83;98670.28;1817112;77;21793;-63
2022/01/28 08:06:01;;;;;;;10.68;8.30;;;;;;;9.87;59.79;98668.48;1813747;77;21040;-62
2022/01/28 08:08:27;;;;;;;11.93;9.70;;;;;;;9.86;59.78;98664.17;1800094;79;21576;-62
2022/01/28 08:10:54;;;;;;;9.70;8.70;;;;;;;9.85;59.76;98661.22;1802968;79;21080;-62
2022/01/28 08:13:20;;;;;;;10.82;9.73;;;;;;;9.85;59.71;98658.56;1808543;78;21030;-64
2022/01/28 08:15:46;;;;;;;10.90;9.23;;;;;;;9.85;59.67;98658.56;1810582;77;21079;-63
2022/01/28 08:18:14;;;;;;;9.80;8.80;;;;;;;9.84;59.65;98652.41;1809740;78;21037;-62
2022/01/28 08:20:41;;;;;;;10.53;9.43;;;;;;;9.86;59.62;98671.31;1811185;79;21780;-62
2022/01/28 08:23:07;;;;;;;9.60;8.60;;;;;;;9.85;59.56;98650.61;1793923;77;21014;-60
2022/01/28 08:25:35;;;;;;;10.70;9.35;;;;;;;9.84;59.53;98642.31;1801016;79;22753;-63
2022/01/28 08:28:03;;;;;;;10.85;9.33;;;;;;;9.85;59.51;98649.28;1805002;78;21077;-61
2022/01/28 08:30:29;;;;;;;10.72;9.63;;;;;;;9.83;59.48;98644.16;1812726;78;21024;-62
2022/01/28 08:32:56;;;;;;;10.38;9.28;;;;;;;9.84;59.44;98645.78;1818331;77;21017;-62
2022/01/28 08:35:30;;;;;;;10.72;9.63;;;;;;;9.85;59.41;98649.28;1796662;78;21509;-62
2022/01/28 08:37:52;;;;;;;10.55;9.38;;;;;;;9.84;59.41;98661.70;1807253;77;21018;-62
2022/01/28 08:40:19;;;;;;;10.70;9.10;;;;;;;9.84;59.37;98655.58;1793558;77;21002;-63
2022/01/28 08:42:46;;;;;;;9.83;8.83;;;;;;;9.83;59.35;98656.58;1802182;79;21068;-62
2022/01/28 08:45:12;;;;;;;10.65;9.53;;;;;;;9.84;59.34;98658.23;1808215;79;21028;-62
2022/01/28 08:47:38;;;;;;;11.45;10.00;;;;;;;9.85;59.31;98651.94;1807892;77;21033;-61
2022/01/28 08:50:06;;;;;;;9.30;8.38;;;;;;;9.85;59.27;98649.28;1806154;79;20967;-63
2022/01/28 08:52:33;;;;;;;11.15;9.48;;;;;;;9.84;59.25;98659.56;1807225;78;21081;-63
2022/01/28 08:55:01;;;;;;;9.70;8.70;;;;;;;9.83;59.23;98658.75;1811097;78;21520;-63
2022/01/28 08:57:28;;;;;;;11.28;8.90;;;;;;;9.83;59.21;98653.44;1804411;79;21125;-63
2022/01/28 08:59:54;;;;;;;11.08;9.35;;;;;;;9.84;59.18;98655.58;1805709;78;21525;-65
2022/01/28 09:02:21;;;;;;;10.32;9.10;;;;;;;9.83;59.17;98652.11;1804593;78;21045;-62
2022/01/28 09:04:48;;;;;;;10.85;9.15;;;;;;;9.82;59.14;98652.30;1797674;79;21010;-61
2022/01/28 09:07:20;;;;;;;11.93;10.60;;;;;;;9.83;59.12;98655.25;1801917;78;21024;-62
2022/01/28 09:09:51;;;;;;;10.75;9.38;;;;;;;9.83;59.11;98653.92;1805630;78;21077;-62
2022/01/28 09:14:57;;;;;;;10.75;9.05;;;;;;;9.83;59.06;98644.64;1792461;79;21021;-63
2022/01/28 09:17:26;;;;;;;10.58;9.35;;;;;;;9.82;59.04;98653.63;1789792;78;21747;-64
2022/01/28 09:19:55;;;;;;;10.05;8.93;;;;;;;9.82;59.01;98645.67;1791317;78;21053;-64
2022/01/28 09:22:21;;;;;;;9.88;8.55;;;;;;;9.81;58.99;98646.18;1798160;77;21293;-62
2022/01/28 09:24:48;;;;;;;9.95;8.83;;;;;;;9.81;58.98;98644.86;1819811;77;21018;-63
2022/01/28 09:27:14;;;;;;;10.30;9.30;;;;;;;9.81;58.94;98634.25;1802514;78;21485;-63
2022/01/28 09:29:41;;;;;;;10.05;9.05;;;;;;;9.82;58.93;98627.91;1803755;79;21459;-64
2022/01/28 09:32:08;;;;;;;10.63;9.03;;;;;;;9.83;58.93;98632.70;1799107;79;21009;-63
2022/01/28 09:34:34;;;;;;;10.05;8.93;;;;;;;9.83;58.93;98622.09;1797824;78;21130;-64
2022/01/28 09:37:01;;;;;;;10.15;9.15;;;;;;;9.84;58.90;98621.09;1810539;79;21017;-63
2022/01/28 09:39:29;;;;;;;10.40;9.30;;;;;;;9.86;58.89;98616.42;1811352;77;20967;-62
2022/01/28 09:42:01;;;;;;;10.20;9.15;;;;;;;9.87;58.88;98606.14;1807025;79;21580;-62
2022/01/28 09:44:25;;;;;;;10.70;9.60;;;;;;;9.89;58.84;98614.72;1796315;78;21005;-63
2022/01/28 09:46:51;;;;;;;10.00;9.03;;;;;;;9.91;58.79;98600.77;1796369;77;21411;-63
2022/01/28 09:49:18;;;;;;;9.25;8.35;;;;;;;9.95;58.73;98601.20;1806770;77;21025;-62
2022/01/28 09:51:46;;;;;;;9.58;8.55;;;;;;;9.97;58.64;98584.58;1804007;77;21015;-63
2022/01/28 09:54:12;;;;;;;9.88;8.88;;;;;;;10.00;58.58;98584.18;1805824;78;21026;-62
2022/01/28 09:56:39;;;;;;;10.25;9.05;;;;;;;10.03;58.49;98580.64;1799696;77;20982;-63
2022/01/28 09:59:05;;;;;;;10.32;9.18;;;;;;;10.07;58.41;98579.75;1809499;78;21119;-62
2022/01/28 10:01:31;;;;;;;9.48;8.45;;;;;;;10.10;58.34;98573.23;1824241;78;21052;-62
2022/01/28 10:04:04;;;;;;;10.20;9.08;;;;;;;10.13;58.27;98582.95;1798172;77;21084;-66
2022/01/28 10:06:33;;;;;;;10.55;9.18;;;;;;;10.15;58.22;98573.48;1818569;77;21060;-61
2022/01/28 10:09:11;;;;;;;9.68;8.65;;;;;;;10.16;58.15;98571.13;1822397;78;21017;-62
2022/01/28 10:11:38;;;;;;;10.40;8.98;;;;;;;10.17;58.14;98570.94;1802882;78;21121;-61
2022/01/28 10:14:13;;;;;;;9.28;8.38;;;;;;;10.18;58.09;98560.64;1817541;78;20990;-62
2022/01/28 10:16:34;;;;;;;9.60;8.38;;;;;;;10.18;58.09;98559.83;1792080;78;21021;-62
2022/01/28 10:19:08;;;;;;;9.60;8.63;;;;;;;10.18;58.08;98561.16;1793862;78;21020;-62
2022/01/28 10:21:46;;;;;;;10.50;9.07;;;;;;;10.18;58.07;98561.16;1793253;77;21032;-62
2022/01/28 10:24:15;;;;;;;9.53;8.55;;;;;;;10.18;58.06;98562.48;1816851;78;21202;-61
2022/01/28 10:27:06;;;;;;;10.43;8.75;;;;;;;10.17;58.06;98547.56;1803265;77;21571;-61
2022/01/28 10:29:35;;;;;;;10.43;8.88;;;;;;;10.16;58.07;98547.23;1805689;78;21021;-62
2022/01/28 10:32:06;;;;;;;9.58;8.38;;;;;;;10.15;58.07;98551.73;1797067;78;21327;-61
2022/01/28 10:34:40;;;;;;;10.25;9.18;;;;;;;10.15;58.05;98548.27;1811258;78;21065;-61
2022/01/28 10:37:30;;;;;;;9.83;8.83;;;;;;;10.15;58.07;98536.33;1814544;78;21135;-61
2022/01/28 10:40:10;;;;;;;10.10;9.00;;;;;;;10.14;58.05;98542.63;1816683;78;21055;-62
2022/01/28 10:42:50;;;;;;;10.55;9.00;;;;;;;10.14;58.03;98532.86;1813198;78;21029;-61
2022/01/28 10:45:21;;;;;;;9.45;8.40;;;;;;;10.14;58.02;98534.19;1807474;77;21072;-62
2022/01/28 10:47:51;;;;;;;9.28;8.38;;;;;;;10.15;57.99;98527.03;1817457;78;21017;-61
2022/01/28 10:50:36;;;;;;;10.25;9.15;;;;;;;10.15;57.97;98520.41;1819850;78;21875;-61
2022/01/28 10:53:10;;;;;;;9.45;8.45;;;;;;;10.16;57.92;98514.91;1818208;78;20959;-62
2022/01/28 10:55:39;;;;;;;9.38;8.13;;;;;;;10.18;57.86;98513.39;1801323;77;28224;-64
2022/01/28 10:58:11;;;;;;;9.65;8.65;;;;;;;10.21;57.81;98507.16;1811317;77;21083;-63
2022/01/28 11:00:40;;;;;;;9.85;8.85;;;;;;;10.27;57.74;98513.52;1796240;79;21501;-64
2022/01/28 11:03:12;;;;;;;10.98;9.23;;;;;;;10.32;57.64;98443.44;1803758;77;21765;-63
2022/01/28 11:05:39;;;;;;;10.13;9.13;;;;;;;10.39;57.91;98452.75;1799362;78;21162;-63
2022/01/28 11:08:08;;;;;;;9.70;8.70;;;;;;;10.48;58.55;98446.25;1799999;78;20983;-64
2022/01/28 11:10:35;;;;;;;12.25;9.80;;;;;;;10.60;59.50;98443.35;1812136;79;21482;-63
2022/01/28 11:13:02;;;;;;;11.93;10.58;;;;;;;10.76;60.68;98452.78;1800884;79;21046;-62
2022/01/28 11:15:29;;;;;;;11.68;8.58;;;;;;;10.93;61.88;98499.73;1803513;78;22855;-63
2022/01/28 11:17:57;;;;;;;10.60;7.85;;;;;;;11.13;64.66;98429.33;1803628;79;21064;-65
2022/01/28 11:20:29;;;;;;;8.95;7.87;;;;;;;11.55;72.07;98431.75;1809393;79;21069;-62
2022/01/28 11:23:22;;;;;;;8.55;6.83;;;;;;;12.15;73.57;98434.34;1806718;77;21052;-61
2022/01/28 11:26:15;;;;;;;8.58;7.12;;;;;;;12.69;73.39;98427.73;1795672;78;21088;-61
2022/01/28 11:28:45;;;;;;;9.63;7.72;;;;;;;13.22;72.05;98419.08;1810652;78;21120;-61
2022/01/28 11:31:12;;;;;;;13.08;8.23;;;;;;;13.69;70.64;98425.64;1804040;79;21006;-62
2022/01/28 11:33:48;;;;;;;10.25;7.97;;;;;;;14.06;69.82;98419.52;1783026;79;20994;-61
2022/01/28 11:36:33;;;;;;;9.00;7.58;;;;;;;14.39;68.74;98467.73;1783099;79;21526;-62
2022/01/28 11:39:08;;;;;;;10.20;7.20;;;;;;;14.65;66.36;98466.63;1800264;78;21029;-62
2022/01/28 11:41:33;;;;;;;10.03;7.58;;;;;;;14.71;64.44;98475.88;1811800;78;21134;-62
2022/01/28 11:44:00;;;;;;;11.78;8.03;;;;;;;14.59;63.33;98476.36;1812056;79;21053;-60
2022/01/28 11:46:36;;;;;;;9.15;7.87;;;;;;;14.47;62.55;98472.79;1814148;78;20998;-61
2022/01/28 11:49:05;;;;;;;11.80;7.53;;;;;;;14.36;61.92;98466.33;1812924;78;21096;-62
2022/01/28 11:51:38;;;;;;;8.30;7.45;;;;;;;14.24;61.36;98464.12;1803014;79;21573;-61
2022/01/28 11:54:07;;;;;;;8.78;6.92;;;;;;;14.11;60.86;98463.21;1810733;79;21097;-63
2022/01/28 11:56:39;;;;;;;8.95;7.60;;;;;;;13.98;60.47;98458.00;1798321;79;21053;-63
2022/01/28 11:59:10;;;;;;;8.08;7.08;;;;;;;13.87;60.14;98474.75;1815333;78;21079;-63
2022/01/28 12:01:43;;;;;;;8.30;7.15;;;;;;;13.74;59.79;98477.85;1806160;78;21046;-64
2022/01/28 12:04:32;;;;;;;8.98;6.58;;;;;;;13.64;59.45;98463.39;1810509;78;21521;-65
2022/01/28 12:07:01;;;;;;;8.50;7.20;;;;;;;13.51;59.12;98458.98;1813350;78;21983;-63
2022/01/28 12:09:33;;;;;;;10.00;6.95;;;;;;;13.40;58.79;98452.48;1814433;78;20983;-64
2022/01/28 12:14:05;;;;;;;7.47;6.70;;;;;;;13.28;58.49;98456.88;1834487;76;28074;-64
2022/01/28 12:16:41;;;;;;;8.08;6.78;;;;;;;13.17;58.41;98465.04;1808567;79;20965;-64
2022/01/28 12:19:17;;;;;;;9.20;8.15;;;;;;;13.11;58.36;98459.24;1814030;79;21156;-63
2022/01/28 12:22:09;;;;;;;9.08;7.45;;;;;;;13.04;58.30;98450.47;1811219;79;22111;-64
2022/01/28 12:24:37;;;;;;;7.95;7.00;;;;;;;12.97;58.30;98450.52;1806502;79;21060;-64
2022/01/28 12:27:10;;;;;;;9.05;7.45;;;;;;;12.89;58.29;98458.78;1812283;79;21041;-65
2022/01/28 12:29:44;;;;;;;8.05;6.83;;;;;;;12.83;58.28;98456.98;1801475;79;21550;-64
2022/01/28 12:32:11;;;;;;;8.15;7.28;;;;;;;12.77;58.25;98452.80;1798768;77;21161;-64
2022/01/28 12:34:46;;;;;;;8.03;7.25;;;;;;;12.72;58.20;98456.61;1794117;79;20946;-64
2022/01/28 12:37:13;;;;;;;8.63;7.15;;;;;;;12.68;58.18;98457.25;1812611;78;21562;-64
2022/01/28 12:40:05;;;;;;;8.25;7.45;;;;;;;12.62;58.13;98452.27;1811168;77;21014;-63
2022/01/28 12:42:22;;;;;;;8.35;7.25;;;;;;;12.57;58.08;98458.23;1802233;78;21041;-64
2022/01/28 12:44:38;;;;;;;7.92;6.72;;;;;;;12.53;58.03;98457.53;1820867;78;21785;-63
2022/01/28 12:47:09;;;;;;;7.95;6.95;;;;;;;12.49;57.98;98452.32;1812980;78;21026;-63
2022/01/28 12:49:36;;;;;;;8.38;7.17;;;;;;;12.45;57.96;98453.78;1808449;78;21546;-64
2022/01/28 12:52:06;;;;;;;7.72;6.95;;;;;;;12.41;57.89;98436.59;1805270;78;21131;-64
2022/01/28 12:54:42;;;;;;;7.42;6.30;;;;;;;12.37;57.84;98449.51;1811085;79;21196;-65
2022/01/28 12:57:10;;;;;;;8.30;7.17;;;;;;;12.34;57.79;98460.08;1803290;78;21295;-64
2022/01/28 12:59:38;;;;;;;8.53;7.62;;;;;;;12.32;57.75;98438.66;1809890;79;21785;-63
2022/01/28 13:02:05;;;;;;;8.15;7.15;;;;;;;12.27;57.67;98431.84;1801675;79;21980;-64
2022/01/28 13:04:49;;;;;;;7.35;6.42;;;;;;;12.22;57.62;98425.80;1824037;77;21016;-66